Angleton, TX (77515)

3:13 AM CST on December 27, 2014 (GMT -0600)
Angleton, West Side | Change Station
CLOSE
Current Station
Personal Weather Station
Location: Angleton, TX
Elevation: 30 ft
Nearby Weather Stations

Elev 30 ft 29.16 °N, 95.44 °W | Updated 38 seconds ago

Overcast
Overcast
69.6 °F
Feels Like 69.6 °F
N
2.5
Wind Variable Wind from ESE
Gusts 3.6 mph

Today
High -- | Low -- °F
--% Chance of Precip.
Yesterday
High -- | Low -- °F
Precip. -- in
7:14 AM 5:31 PM
Waxing Crescent, 34% visible
Pressure 29.98 in
Visibility 10.0 miles
Clouds Scattered Clouds 900 ft
Scattered Clouds 2200 ft
Overcast 6000 ft
Dew Point 50 °F
Humidity 49%
Rainfall 0.00 in
Snow Depth Not available.
UV 0 out of 12
Pollen 6.50 out of 12
Air Quality Not available.
Flu Activity Not available.
METAR KLBX 270848Z AUTO 18011KT 10SM SCT009 SCT022 OVC060 20/20 A2998 RMK AO2 SLP151 T02000200 55005

More Conditions Fewer Conditions

Pressure 29.98 in
Visibility 10.0 miles
Clouds Scattered Clouds 900 ft
Scattered Clouds 2200 ft
Overcast 6000 ft
Dew Point 50 °F
Humidity 49%
Rainfall 0.00 in
Snow Depth Not available.
UV 0 out of 12
Pollen 6.50 out of 12
Air Quality Not available.
Flu Activity Not available.
METAR KLBX 270848Z AUTO 18011KT 10SM SCT009 SCT022 OVC060 20/20 A2998 RMK AO2 SLP151 T02000200 55005

More Conditions Fewer Conditions

10-Day Weather Forecast

Almanac

Astronomy

Dec. 27, 2014 Rise Set
Actual Time
Civil Twilight
Nautical Twilight
Astronomical Twilight
Moon
Length of Visible Light
Length of Day
Tomorrow will be .
, % of the Moon is Illuminated

Today's Extremes

State Highs State Lows

Community

WunderPhotos

Upload Photos

1,780,869 photos uploaded!

WunderBlogs® & News

Nearby

Air Quality

  Air Quality AQ Index Pollutant
Not available.

Snow Depth

Station Depth Elevation

Earthquake Activity

City Distance Mag. Time & Date
Minimum magnitude displayed is 2.5.

Coastal Water Temperatures

Place Temperature

Nearby Weather Stations